Aurora, SD

10:26 AM CST on February 10, 2016 (GMT -0600)
Aurora | | Change Station
CLOSE
Current Station
Personal Weather Station
Location: Aurora, SD
Elevation: 1634 ft
Nearby Weather Stations

Elev 1634 ft 44.29 °N, 96.68 °W | Updated 6 seconds ago

Snow
Snow
12.9 °F
Feels Like 0 °F
N
10.7
Wind Variable Wind from North
Gusts 12.3 mph

Today
High -- | Low -- °F
--% Chance of Precip.
Yesterday
High -- | Low -- °F
Precip. -- in
Pressure 29.98 in
Visibility 5.0 miles
Clouds Scattered Clouds 1800 ft
Scattered Clouds 2500 ft
Windchill 0 °F
Dew Point 2 °F
Humidity 62%
Rainfall 0.00 in
Snow Depth Not available.
7:34 AM 5:48 PM
Waxing Crescent, 6% visible
SPECI KBKX 101619Z AUTO 11012KT 5SM -SN SCT018 SCT025 M11/M13 A2998 RMK AO2 P0000 FZRANO
Pressure 29.98 in
Visibility 5.0 miles
Clouds Scattered Clouds 1800 ft
Scattered Clouds 2500 ft
Windchill 0 °F
Dew Point 2 °F
Humidity 62%
Rainfall 0.00 in
Snow Depth Not available.
7:34 AM 5:48 PM
Waxing Crescent, 6% visible
SPECI KBKX 101619Z AUTO 11012KT 5SM -SN SCT018 SCT025 M11/M13 A2998 RMK AO2 P0000 FZRANO

10-Day Weather Forecast

Almanac

Astronomy

Feb. 10, 2016 Rise Set
Actual Time
Civil Twilight
Nautical Twilight
Astronomical Twilight
Moon
Length of Visible Light
Length of Day
Tomorrow will be .
, % of the Moon is Illuminated

Today's Extremes

State Highs State Lows

Community

WunderPhotos

Upload Photos

1,891,881 photos uploaded!

WunderBlog® & News

Nearby

Air Quality

  Air Quality AQ Index Pollutant
Not available.

Snow Depth

Station Depth Elevation

Earthquake Activity

City Distance Mag. Time & Date
Minimum magnitude displayed is 2.5.

Coastal Water Temperatures

Place Temperature

Stations

Nearby Weather Stations

Station Location Temp. Windchill Dew Point Humidity Wind Precip. Elev Updated Type
                   

Watches & Warnings

There are currently no watches in effect.